createdAt,value
2022-11-24T00:01:34.120Z,2.90
2022-11-24T00:04:06.984Z,2.63
2022-11-24T00:06:39.814Z,3.17
2022-11-24T00:09:12.187Z,3.58
2022-11-24T00:11:44.496Z,2.85
2022-11-24T00:14:16.469Z,2.75
2022-11-24T00:16:49.633Z,3.00
2022-11-24T00:19:21.575Z,2.67
2022-11-24T00:21:54.386Z,3.38
2022-11-24T00:24:26.538Z,2.50
2022-11-24T00:26:59.275Z,2.80
2022-11-24T00:29:31.199Z,3.35
2022-11-24T00:32:06.419Z,4.10
2022-11-24T00:34:38.672Z,2.97
2022-11-24T00:37:11.406Z,2.45
2022-11-24T00:39:43.761Z,3.25
2022-11-24T00:42:15.689Z,2.55
2022-11-24T00:47:41.634Z,2.63
2022-11-24T00:50:14.477Z,2.75
2022-11-24T00:52:46.374Z,2.80
2022-11-24T00:55:19.104Z,3.13
2022-11-24T00:57:51.391Z,3.83
2022-11-24T01:00:24.556Z,2.95
2022-11-24T01:02:56.915Z,2.78
2022-11-24T01:05:29.729Z,2.65
2022-11-24T01:08:02.060Z,3.20
2022-11-24T01:10:34.859Z,3.08
2022-11-24T01:13:07.448Z,2.80
2022-11-24T01:15:40.052Z,3.42
2022-11-24T01:18:13.598Z,2.80
2022-11-24T01:20:45.901Z,2.90
2022-11-24T01:23:19.075Z,2.65
2022-11-24T01:25:50.972Z,3.13
2022-11-24T01:28:24.073Z,2.88
2022-11-24T01:31:01.184Z,3.30
2022-11-24T01:33:35.832Z,2.90
2022-11-24T01:36:07.794Z,3.10
2022-11-24T01:38:41.035Z,3.10
2022-11-24T01:41:23.892Z,3.60
2022-11-24T01:43:57.443Z,3.67
2022-11-24T01:46:40.348Z,3.42
2022-11-24T01:49:38.782Z,3.83
2022-11-24T01:52:16.591Z,3.83
2022-11-24T01:55:04.606Z,3.13
2022-11-24T01:57:44.403Z,3.10
2022-11-24T02:00:19.182Z,3.53
2022-11-24T02:02:51.833Z,2.97
2022-11-24T02:05:29.215Z,3.05
2022-11-24T02:08:02.132Z,3.45
2022-11-24T02:10:35.452Z,2.72
2022-11-24T02:13:07.509Z,3.42
2022-11-24T02:15:40.312Z,3.58
2022-11-24T02:18:12.244Z,3.30
2022-11-24T02:20:45.029Z,2.70
2022-11-24T02:23:49.207Z,2.80
2022-11-24T02:26:46.770Z,3.08
2022-11-24T02:29:20.683Z,4.35
2022-11-24T02:32:00.042Z,3.30
2022-11-24T02:34:32.362Z,3.47
2022-11-24T02:37:05.750Z,3.25
2022-11-24T02:39:38.299Z,3.00
2022-11-24T02:42:14.478Z,3.45
2022-11-24T02:44:51.815Z,3.15
2022-11-24T02:47:24.499Z,3.63
2022-11-24T02:49:56.360Z,2.97
2022-11-24T02:52:29.060Z,2.67
2022-11-24T02:55:23.983Z,3.85
2022-11-24T02:57:56.089Z,3.27
2022-11-24T03:00:28.786Z,3.58
2022-11-24T03:03:00.769Z,3.42
2022-11-24T03:05:33.520Z,3.17
2022-11-24T03:08:06.428Z,3.25
2022-11-24T03:10:39.116Z,2.53
2022-11-24T03:13:12.002Z,3.03
2022-11-24T03:15:44.038Z,3.80
2022-11-24T03:18:16.770Z,3.25
2022-11-24T03:20:50.039Z,3.25
2022-11-24T03:23:22.350Z,3.33
2022-11-24T03:25:55.629Z,4.45
2022-11-24T03:28:28.431Z,3.72
2022-11-24T03:31:00.620Z,3.38
2022-11-24T03:33:34.077Z,4.22
2022-11-24T03:36:07.911Z,2.67
2022-11-24T03:38:40.632Z,3.72
2022-11-24T03:41:13.012Z,3.30
2022-11-24T03:43:44.867Z,3.78
2022-11-24T03:46:18.116Z,3.33
2022-11-24T03:48:50.472Z,3.60
2022-11-24T03:51:22.748Z,3.22
2022-11-24T03:53:55.858Z,3.67
2022-11-24T03:56:28.033Z,3.80
2022-11-24T03:59:00.761Z,3.60
2022-11-24T04:01:32.679Z,3.97
2022-11-24T04:04:05.668Z,3.88
2022-11-24T04:06:38.812Z,3.40
2022-11-24T04:09:11.183Z,3.85
2022-11-24T04:12:01.629Z,3.95
2022-11-24T04:14:34.149Z,3.22
2022-11-24T04:17:06.672Z,3.30
2022-11-24T04:19:38.967Z,3.17
2022-11-24T04:22:10.831Z,4.22
2022-11-24T04:24:43.942Z,3.65
2022-11-24T04:27:15.921Z,4.27
2022-11-24T04:29:48.702Z,3.35
2022-11-24T04:32:20.860Z,3.33
2022-11-24T04:34:53.727Z,3.60
2022-11-24T04:37:25.646Z,4.30
2022-11-24T04:39:58.337Z,4.25
2022-11-24T04:42:30.596Z,4.15
2022-11-24T04:45:04.203Z,3.88
2022-11-24T04:50:30.069Z,4.70
2022-11-24T04:53:02.408Z,3.97
2022-11-24T04:55:35.105Z,3.95
2022-11-24T04:58:13.237Z,3.58
2022-11-24T05:00:45.951Z,2.78
2022-11-24T05:03:17.869Z,3.97
2022-11-24T05:05:50.902Z,3.83
2022-11-24T05:08:23.203Z,4.63
2022-11-24T05:10:55.974Z,3.88
2022-11-24T05:13:28.217Z,3.45
2022-11-24T05:16:02.049Z,3.17
2022-11-24T05:18:34.974Z,4.57
2022-11-24T05:21:07.285Z,4.55
2022-11-24T05:23:39.799Z,4.25
2022-11-24T05:26:12.808Z,4.78
2022-11-24T05:28:44.731Z,4.05
2022-11-24T05:31:17.523Z,4.57
2022-11-24T05:33:49.812Z,3.88
2022-11-24T05:36:42.059Z,4.20
2022-11-24T05:39:14.341Z,3.58
2022-11-24T05:41:47.478Z,4.13
2022-11-24T05:44:19.760Z,3.80
2022-11-24T05:46:52.107Z,4.90
2022-11-24T05:49:23.998Z,4.15
2022-11-24T05:51:56.702Z,4.13
2022-11-24T05:54:28.976Z,3.60
2022-11-24T05:57:01.274Z,4.18
2022-11-24T05:59:34.234Z,3.90
2022-11-24T06:02:06.185Z,4.15
2022-11-24T06:04:39.087Z,3.17
2022-11-24T06:07:13.018Z,4.50
2022-11-24T06:10:08.299Z,3.78
2022-11-24T06:12:40.562Z,4.57
2022-11-24T06:15:13.822Z,3.65
2022-11-24T06:17:56.241Z,4.15
2022-11-24T06:20:32.615Z,4.38
2022-11-24T06:23:05.614Z,3.77
2022-11-24T06:25:38.383Z,3.67
2022-11-24T06:28:10.751Z,3.92
2022-11-24T06:30:42.651Z,4.32
2022-11-24T06:33:15.340Z,4.28
2022-11-24T06:35:47.710Z,3.95
2022-11-24T06:38:24.313Z,3.40
2022-11-24T06:41:10.450Z,4.13
2022-11-24T06:43:56.851Z,4.68
2022-11-24T06:46:30.525Z,3.03
2022-11-24T06:49:03.908Z,4.35
2022-11-24T06:51:35.932Z,3.97
2022-11-24T06:54:17.357Z,3.72
2022-11-24T06:56:49.643Z,3.88
2022-11-24T06:59:22.739Z,4.13
2022-11-24T07:01:54.656Z,3.57
2022-11-24T07:04:27.797Z,3.92
2022-11-24T07:07:00.079Z,3.78
2022-11-24T07:09:33.552Z,3.90
2022-11-24T07:12:07.116Z,4.40
2022-11-24T07:14:39.848Z,3.55
2022-11-24T07:17:11.738Z,3.28
2022-11-24T07:19:44.502Z,3.80
2022-11-24T07:22:16.890Z,3.60
2022-11-24T07:24:49.666Z,3.70
2022-11-24T07:27:22.758Z,3.42
2022-11-24T07:29:54.623Z,4.32
2022-11-24T07:32:27.688Z,3.28
2022-11-24T07:34:59.615Z,4.05
2022-11-24T07:37:32.463Z,4.75
2022-11-24T07:40:06.624Z,3.90
2022-11-24T07:42:39.579Z,3.00
2022-11-24T07:45:11.451Z,3.20
2022-11-24T07:47:44.745Z,4.22
2022-11-24T07:50:17.773Z,3.38
2022-11-24T07:52:50.060Z,4.28
2022-11-24T07:55:22.864Z,3.55
2022-11-24T07:57:55.213Z,3.33
2022-11-24T08:00:28.209Z,2.75
2022-11-24T08:03:00.973Z,4.28
2022-11-24T08:05:32.876Z,3.30
2022-11-24T08:08:05.479Z,2.63
2022-11-24T08:10:37.373Z,2.90
2022-11-24T08:13:09.757Z,2.45
2022-11-24T08:15:42.077Z,2.90
2022-11-24T08:18:14.634Z,3.22
2022-11-24T08:20:47.348Z,3.72
2022-11-24T08:23:19.254Z,2.70
2022-11-24T08:25:56.745Z,3.45
2022-11-24T08:28:29.507Z,3.50
2022-11-24T08:31:07.974Z,3.30
2022-11-24T08:33:40.849Z,3.08
2022-11-24T08:36:17.569Z,3.08
2022-11-24T08:38:59.364Z,2.97
2022-11-24T08:41:31.780Z,2.50
2022-11-24T08:44:04.715Z,2.65
2022-11-24T08:46:37.077Z,4.13
2022-11-24T08:49:11.058Z,3.50
2022-11-24T08:51:43.351Z,3.20
2022-11-24T08:54:18.955Z,3.20
2022-11-24T08:56:50.884Z,3.08
2022-11-24T08:59:23.281Z,2.95
2022-11-24T09:01:55.731Z,2.85
2022-11-24T09:04:27.820Z,3.13
2022-11-24T09:07:02.633Z,2.83
2022-11-24T09:09:34.911Z,3.45
2022-11-24T09:12:14.265Z,2.90
2022-11-24T09:14:46.708Z,2.70
2022-11-24T09:17:19.388Z,3.28
2022-11-24T09:19:51.241Z,3.25
2022-11-24T09:22:23.945Z,3.33
2022-11-24T09:24:56.224Z,3.38
2022-11-24T09:27:28.122Z,3.75
2022-11-24T09:30:00.867Z,2.72
2022-11-24T09:32:33.066Z,3.00
2022-11-24T09:35:06.262Z,3.20
2022-11-24T09:37:38.955Z,3.13
2022-11-24T09:40:14.656Z,3.03
2022-11-24T09:43:11.993Z,2.97
2022-11-24T09:46:05.432Z,3.17
2022-11-24T09:48:41.998Z,3.17
2022-11-24T09:51:16.114Z,3.80
2022-11-24T09:54:06.912Z,3.58
2022-11-24T09:56:42.255Z,3.65
2022-11-24T09:59:23.582Z,3.35
2022-11-24T10:01:56.608Z,3.08
2022-11-24T10:04:43.168Z,2.90
2022-11-24T10:07:45.621Z,3.95
2022-11-24T10:10:34.912Z,5.88
2022-11-24T10:14:39.156Z,4.10
2022-11-24T10:17:40.809Z,2.90
2022-11-24T10:20:36.681Z,3.00
2022-11-24T10:23:39.608Z,3.00
2022-11-24T10:26:36.984Z,3.10
2022-11-24T10:29:42.800Z,2.60
2022-11-24T10:32:20.593Z,3.15
2022-11-24T10:34:54.595Z,3.07
2022-11-24T10:37:55.433Z,3.08
2022-11-24T10:40:59.472Z,2.70
2022-11-24T10:43:32.040Z,3.17
2022-11-24T10:46:28.806Z,2.65
2022-11-24T10:49:04.791Z,2.80
2022-11-24T10:52:13.528Z,2.75
2022-11-24T10:55:02.233Z,3.40
2022-11-24T10:57:37.934Z,3.13
2022-11-24T11:00:21.828Z,4.18
2022-11-24T11:03:23.971Z,3.23
2022-11-24T11:06:27.758Z,2.97
2022-11-24T11:09:08.781Z,3.55
2022-11-24T11:11:42.530Z,3.15
2022-11-24T11:14:35.522Z,2.92
2022-11-24T11:17:36.264Z,3.67
2022-11-24T11:20:33.435Z,3.75
2022-11-24T11:23:23.109Z,4.38
2022-11-24T11:26:19.316Z,3.33
2022-11-24T11:35:21.367Z,3.20
2022-11-24T11:38:04.555Z,3.20
2022-11-24T11:40:37.014Z,3.78
2022-11-24T11:43:26.168Z,2.80
2022-11-24T11:46:18.475Z,3.13
2022-11-24T11:48:51.372Z,3.30
2022-11-24T11:51:42.626Z,2.50
2022-11-24T11:54:52.461Z,3.40
2022-11-24T11:57:39.483Z,3.10
2022-11-24T12:00:19.651Z,2.88
2022-11-24T12:03:24.447Z,2.70
2022-11-24T12:06:25.376Z,2.95
2022-11-24T12:09:41.764Z,2.60
2022-11-24T12:12:50.761Z,3.55
2022-11-24T12:15:42.286Z,2.67
2022-11-24T12:18:48.471Z,2.92
2022-11-24T12:21:26.696Z,2.72
2022-11-24T12:24:19.595Z,3.22
2022-11-24T12:26:58.214Z,2.80
2022-11-24T12:29:57.660Z,2.60
2022-11-24T12:33:22.041Z,2.85
2022-11-24T12:36:07.083Z,2.50
2022-11-24T12:39:25.110Z,2.88
2022-11-24T12:42:14.063Z,2.80
2022-11-24T12:45:13.406Z,2.58
2022-11-24T12:48:13.978Z,3.50
2022-11-24T12:50:47.059Z,3.10
2022-11-24T12:53:29.104Z,3.08
2022-11-24T12:56:15.760Z,3.38
2022-11-24T12:59:16.403Z,2.90
2022-11-24T13:02:15.602Z,2.75
2022-11-24T13:05:33.850Z,2.22
2022-11-24T13:08:06.869Z,2.47
2022-11-24T13:10:55.301Z,2.80
2022-11-24T13:14:02.106Z,3.00
2022-11-24T13:16:41.017Z,3.13
2022-11-24T13:19:28.783Z,2.53
2022-11-24T13:22:07.824Z,2.65
2022-11-24T13:24:41.040Z,2.90
2022-11-24T13:27:16.435Z,2.88
2022-11-24T13:29:51.169Z,2.33
2022-11-24T13:32:22.988Z,2.08
2022-11-24T13:35:02.343Z,2.78
2022-11-24T13:37:36.477Z,2.35
2022-11-24T13:40:11.898Z,3.38
2022-11-24T13:42:56.353Z,2.28
2022-11-24T13:45:41.956Z,2.40
2022-11-24T13:48:20.646Z,2.22
2022-11-24T13:50:54.109Z,2.40
2022-11-24T13:53:42.498Z,3.33
2022-11-24T13:56:17.708Z,2.83
2022-11-24T13:58:54.404Z,3.00
2022-11-24T14:01:31.677Z,2.95
2022-11-24T14:04:31.871Z,2.90
2022-11-24T14:07:16.029Z,4.97
2022-11-24T14:09:51.184Z,2.50
2022-11-24T14:12:28.274Z,2.97
2022-11-24T14:15:25.888Z,2.15
2022-11-24T14:17:58.820Z,2.40
2022-11-24T14:20:30.787Z,2.20
2022-11-24T14:23:04.729Z,2.60
2022-11-24T14:25:36.770Z,2.42
2022-11-24T14:28:26.508Z,2.50
2022-11-24T14:31:22.520Z,2.80
2022-11-24T14:34:16.300Z,2.70
2022-11-24T14:36:49.959Z,2.78
2022-11-24T14:39:25.207Z,2.40
2022-11-24T14:42:23.002Z,2.83
2022-11-24T14:45:03.880Z,3.03
2022-11-24T14:47:45.386Z,2.67
2022-11-24T14:50:21.438Z,2.50
2022-11-24T14:52:57.234Z,3.20
2022-11-24T14:55:39.111Z,2.85
2022-11-24T14:58:40.522Z,2.50
2022-11-24T15:01:29.559Z,2.63
2022-11-24T15:07:25.897Z,2.50
2022-11-24T15:10:02.285Z,2.85
2022-11-24T15:12:42.754Z,2.78
2022-11-24T15:15:15.572Z,2.80
2022-11-24T15:17:58.404Z,2.63
2022-11-24T15:20:43.611Z,2.72
2022-11-24T15:23:30.765Z,2.78
2022-11-24T15:26:04.223Z,3.05
2022-11-24T15:28:36.233Z,3.38
2022-11-24T15:31:14.271Z,4.15
2022-11-24T15:33:46.706Z,3.67
2022-11-24T15:36:20.882Z,3.30
2022-11-24T15:38:52.752Z,2.95
2022-11-24T15:41:34.743Z,3.53
2022-11-24T15:44:07.668Z,2.78
2022-11-24T15:46:40.922Z,2.78
2022-11-24T15:49:13.864Z,3.83
2022-11-24T15:51:47.555Z,4.05
2022-11-24T15:54:19.646Z,4.18
2022-11-24T15:56:52.447Z,4.15
2022-11-24T15:59:24.801Z,4.05
2022-11-24T16:01:57.117Z,4.45
2022-11-24T16:04:29.016Z,3.95
2022-11-24T16:07:04.228Z,3.97
2022-11-24T16:09:36.481Z,3.80
2022-11-24T16:12:10.066Z,3.38
2022-11-24T16:14:42.755Z,3.92
2022-11-24T16:17:15.057Z,4.20
2022-11-24T16:19:50.569Z,3.90
2022-11-24T16:22:32.745Z,4.55
2022-11-24T16:25:06.756Z,3.78
2022-11-24T16:27:39.502Z,4.80
2022-11-24T16:30:13.563Z,5.13
2022-11-24T16:32:46.311Z,4.50
2022-11-24T16:35:18.725Z,4.88
2022-11-24T16:37:51.519Z,5.43
2022-11-24T16:40:24.778Z,5.40
2022-11-24T16:42:58.242Z,4.47
2022-11-24T16:45:31.010Z,4.05
2022-11-24T16:48:03.344Z,4.43
2022-11-24T16:50:37.782Z,4.47
2022-11-24T16:53:10.147Z,4.35
2022-11-24T16:55:42.488Z,4.23
2022-11-24T16:58:14.751Z,4.90
2022-11-24T17:00:47.577Z,4.53
2022-11-24T17:03:19.881Z,3.80
2022-11-24T17:05:59.987Z,4.13
2022-11-24T17:08:34.856Z,4.90
2022-11-24T17:11:13.597Z,5.00
2022-11-24T17:13:47.089Z,5.15
2022-11-24T17:16:23.285Z,4.28
2022-11-24T17:18:56.209Z,4.03
2022-11-24T17:21:29.377Z,4.63
2022-11-24T17:24:06.967Z,4.68
2022-11-24T17:26:39.235Z,4.57
2022-11-24T17:29:12.425Z,4.82
2022-11-24T17:31:46.244Z,4.28
2022-11-24T17:34:18.758Z,4.60
2022-11-24T17:36:51.515Z,4.32
2022-11-24T17:39:25.184Z,4.15
2022-11-24T17:41:57.953Z,4.78
2022-11-24T17:44:29.983Z,4.00
2022-11-24T17:47:02.764Z,4.53
2022-11-24T17:49:34.637Z,4.15
2022-11-24T17:52:10.573Z,4.03
2022-11-24T17:54:46.979Z,3.80
2022-11-24T17:57:20.563Z,4.43
2022-11-24T17:59:53.839Z,4.10
2022-11-24T18:02:26.120Z,4.50
2022-11-24T18:04:59.290Z,4.05
2022-11-24T18:07:31.572Z,4.40
2022-11-24T18:10:05.324Z,3.80
2022-11-24T18:12:37.785Z,4.50
2022-11-24T18:15:10.237Z,3.88
2022-11-24T18:17:42.973Z,4.22
2022-11-24T18:20:15.351Z,4.28
2022-11-24T18:23:04.939Z,5.03
2022-11-24T18:25:38.540Z,5.70
2022-11-24T18:28:11.247Z,4.60
2022-11-24T18:30:43.116Z,5.28
2022-11-24T18:33:17.016Z,4.78
2022-11-24T18:36:00.246Z,5.00
2022-11-24T18:41:29.334Z,5.57
2022-11-24T18:44:03.517Z,4.43
2022-11-24T18:46:36.706Z,4.10
2022-11-24T18:49:09.857Z,4.55
2022-11-24T18:51:42.247Z,5.50
2022-11-24T18:54:14.573Z,3.75
2022-11-24T18:56:47.531Z,4.28
2022-11-24T18:59:20.158Z,4.47
2022-11-24T19:01:52.829Z,4.40
2022-11-24T19:04:26.209Z,4.87
2022-11-24T19:06:58.768Z,4.90
2022-11-24T19:09:31.049Z,4.40
2022-11-24T19:12:04.220Z,4.47
2022-11-24T19:14:36.496Z,4.40
2022-11-24T19:17:09.172Z,3.83
2022-11-24T19:19:41.050Z,3.78
2022-11-24T19:22:17.481Z,3.88
2022-11-24T19:24:50.746Z,3.17
2022-11-24T19:27:25.805Z,3.70
2022-11-24T19:29:57.703Z,4.33
2022-11-24T19:32:32.746Z,4.47
2022-11-24T19:35:05.259Z,4.97
2022-11-24T19:37:38.414Z,5.28
2022-11-24T19:40:11.099Z,4.38
2022-11-24T19:42:44.085Z,5.53
2022-11-24T19:45:16.459Z,5.47
2022-11-24T19:47:49.521Z,4.97
2022-11-24T19:50:21.795Z,5.00
2022-11-24T19:52:54.857Z,3.80
2022-11-24T19:55:27.025Z,4.90
2022-11-24T19:58:00.078Z,5.13
2022-11-24T20:00:32.364Z,4.55
2022-11-24T20:03:05.789Z,5.47
2022-11-24T20:05:38.060Z,5.43
2022-11-24T20:08:10.249Z,4.83
2022-11-24T20:10:42.523Z,4.28
2022-11-24T20:13:14.815Z,4.15
2022-11-24T20:15:46.740Z,4.53
2022-11-24T20:18:19.014Z,4.80
2022-11-24T20:20:50.862Z,5.40
2022-11-24T20:23:23.386Z,4.55
2022-11-24T20:25:55.937Z,5.07
2022-11-24T20:28:28.707Z,3.55
2022-11-24T20:31:17.124Z,3.95
2022-11-24T20:33:50.136Z,4.10
2022-11-24T20:36:26.560Z,3.60
2022-11-24T20:39:05.699Z,3.70
2022-11-24T20:41:39.946Z,4.38
2022-11-24T20:44:17.208Z,4.13
2022-11-24T20:46:50.695Z,4.30
2022-11-24T20:49:23.167Z,4.10
2022-11-24T20:51:57.501Z,3.78
2022-11-24T20:54:29.820Z,3.72
2022-11-24T20:57:02.356Z,4.25
2022-11-24T20:59:34.820Z,4.20
2022-11-24T21:02:07.444Z,4.60
2022-11-24T21:04:39.754Z,3.90
2022-11-24T21:07:13.898Z,4.30
2022-11-24T21:09:45.857Z,4.15
2022-11-24T21:12:18.383Z,4.67
2022-11-24T21:14:50.706Z,3.78
2022-11-24T21:17:23.702Z,4.90
2022-11-24T21:20:00.788Z,3.72
2022-11-24T21:22:33.654Z,3.72
2022-11-24T21:25:06.135Z,4.07
2022-11-24T21:27:39.148Z,3.60
2022-11-24T21:30:11.769Z,4.47
2022-11-24T21:32:45.392Z,3.88
2022-11-24T21:35:17.449Z,4.43
2022-11-24T21:37:50.347Z,4.10
2022-11-24T21:40:22.188Z,3.85
2022-11-24T21:42:54.858Z,3.85
2022-11-24T21:45:29.075Z,3.47
2022-11-24T21:48:01.702Z,3.50
2022-11-24T21:50:33.547Z,3.70
2022-11-24T21:53:06.452Z,3.92
2022-11-24T21:55:38.360Z,3.50
2022-11-24T21:58:11.266Z,3.40
2022-11-24T22:00:43.281Z,3.70
2022-11-24T22:03:16.138Z,3.17
2022-11-24T22:05:55.929Z,3.08
2022-11-24T22:08:30.111Z,3.15
2022-11-24T22:11:23.774Z,3.25
2022-11-24T22:13:55.996Z,2.88
2022-11-24T22:16:28.347Z,3.60
2022-11-24T22:19:00.916Z,3.65
2022-11-24T22:21:36.098Z,3.40
2022-11-24T22:24:08.528Z,3.35
2022-11-24T22:26:41.088Z,3.08
2022-11-24T22:29:12.970Z,3.47
2022-11-24T22:31:45.552Z,2.95
2022-11-24T22:34:17.842Z,3.70
2022-11-24T22:36:50.057Z,2.80
2022-11-24T22:39:21.894Z,3.30
2022-11-24T22:41:54.754Z,3.67
2022-11-24T22:44:26.674Z,3.85
2022-11-24T22:47:00.280Z,3.67
2022-11-24T22:49:32.234Z,3.47
2022-11-24T22:52:04.879Z,3.40
2022-11-24T22:54:37.379Z,3.50
2022-11-24T22:57:10.577Z,3.22
2022-11-24T22:59:42.847Z,3.85
2022-11-24T23:02:15.940Z,3.15
2022-11-24T23:04:47.849Z,3.67
2022-11-24T23:07:20.473Z,3.37
2022-11-24T23:09:52.383Z,3.35
2022-11-24T23:12:24.984Z,3.35
2022-11-24T23:14:56.876Z,3.20
2022-11-24T23:17:29.386Z,3.42
2022-11-24T23:20:01.256Z,3.10
2022-11-24T23:22:33.798Z,3.45
2022-11-24T23:25:06.013Z,3.30
2022-11-24T23:27:38.940Z,3.50
2022-11-24T23:30:11.017Z,2.88
2022-11-24T23:32:43.602Z,3.17
2022-11-24T23:35:15.619Z,2.67
2022-11-24T23:38:07.118Z,2.58
2022-11-24T23:40:40.440Z,2.53
2022-11-24T23:43:13.558Z,2.65
2022-11-24T23:46:10.209Z,2.53
2022-11-24T23:48:42.635Z,2.75
2022-11-24T23:51:18.738Z,2.50
2022-11-24T23:53:51.665Z,2.50
2022-11-24T23:56:28.033Z,2.50
2022-11-24T23:59:01.623Z,2.60
